sensor_id;sensor_type;location;lat;lon;timestamp;pressure;altitude;pressure_sealevel;temperature;humidity
59545;BME280;45368;55.002;-1.592;2023-07-30T00:01:57;99370.22;;;17.43;48.56
59545;BME280;45368;55.002;-1.592;2023-07-30T00:04:25;99361.46;;;17.75;48.37
59545;BME280;45368;55.002;-1.592;2023-07-30T00:06:52;99363.33;;;17.78;48.15
59545;BME280;45368;55.002;-1.592;2023-07-30T00:09:20;99362.04;;;18.11;47.28
59545;BME280;45368;55.002;-1.592;2023-07-30T00:11:48;99361.69;;;17.45;48.12
59545;BME280;45368;55.002;-1.592;2023-07-30T00:14:15;99358.98;;;18.16;47.27
59545;BME280;45368;55.002;-1.592;2023-07-30T00:16:43;99363.12;;;18.72;46.50
59545;BME280;45368;55.002;-1.592;2023-07-30T00:19:09;99363.74;;;19.17;45.68
59545;BME280;45368;55.002;-1.592;2023-07-30T00:21:36;99362.49;;;18.39;45.94
59545;BME280;45368;55.002;-1.592;2023-07-30T00:24:04;99363.08;;;19.17;45.30
59545;BME280;45368;55.002;-1.592;2023-07-30T00:26:32;99353.35;;;19.94;43.83
59545;BME280;45368;55.002;-1.592;2023-07-30T00:28:59;99352.24;;;20.10;43.13
59545;BME280;45368;55.002;-1.592;2023-07-30T00:31:26;99348.55;;;20.44;42.63
59545;BME280;45368;55.002;-1.592;2023-07-30T00:33:55;99345.02;;;20.14;42.91
59545;BME280;45368;55.002;-1.592;2023-07-30T00:36:22;99344.89;;;19.30;43.58
59545;BME280;45368;55.002;-1.592;2023-07-30T00:38:50;99341.27;;;19.49;43.51
59545;BME280;45368;55.002;-1.592;2023-07-30T00:41:22;99338.43;;;19.70;43.49
59545;BME280;45368;55.002;-1.592;2023-07-30T00:43:49;99343.04;;;17.82;46.78
59545;BME280;45368;55.002;-1.592;2023-07-30T00:46:16;99346.45;;;18.57;45.79
59545;BME280;45368;55.002;-1.592;2023-07-30T00:48:44;99346.12;;;19.35;44.33
59545;BME280;45368;55.002;-1.592;2023-07-30T00:51:13;99341.25;;;19.78;43.69
59545;BME280;45368;55.002;-1.592;2023-07-30T00:53:42;99343.68;;;18.99;44.60
59545;BME280;45368;55.002;-1.592;2023-07-30T00:56:10;99331.97;;;20.24;43.39
59545;BME280;45368;55.002;-1.592;2023-07-30T00:58:37;99333.56;;;19.74;43.71
59545;BME280;45368;55.002;-1.592;2023-07-30T01:01:05;99328.80;;;19.70;44.12
59545;BME280;45368;55.002;-1.592;2023-07-30T01:03:33;99335.45;;;19.05;44.47
59545;BME280;45368;55.002;-1.592;2023-07-30T01:06:00;99332.51;;;18.20;46.40
59545;BME280;45368;55.002;-1.592;2023-07-30T01:08:28;99336.12;;;17.31;48.13
59545;BME280;45368;55.002;-1.592;2023-07-30T01:10:56;99344.67;;;16.77;49.90
59545;BME280;45368;55.002;-1.592;2023-07-30T01:13:25;99348.13;;;17.09;48.78
59545;BME280;45368;55.002;-1.592;2023-07-30T01:15:53;99348.74;;;17.09;49.39
59545;BME280;45368;55.002;-1.592;2023-07-30T01:18:21;99350.44;;;18.43;47.12
59545;BME280;45368;55.002;-1.592;2023-07-30T01:20:48;99350.38;;;18.42;46.72
59545;BME280;45368;55.002;-1.592;2023-07-30T01:23:16;99352.03;;;18.92;45.94
59545;BME280;45368;55.002;-1.592;2023-07-30T01:25:44;99354.56;;;18.89;45.76
59545;BME280;45368;55.002;-1.592;2023-07-30T01:28:16;99361.48;;;17.90;46.86
59545;BME280;45368;55.002;-1.592;2023-07-30T01:30:45;99364.48;;;17.98;47.01
59545;BME280;45368;55.002;-1.592;2023-07-30T01:33:13;99364.79;;;16.97;48.49
59545;BME280;45368;55.002;-1.592;2023-07-30T01:35:42;99363.05;;;16.17;50.11
59545;BME280;45368;55.002;-1.592;2023-07-30T01:38:10;99367.16;;;16.14;50.31
59545;BME280;45368;55.002;-1.592;2023-07-30T01:40:37;99361.41;;;15.90;50.80
59545;BME280;45368;55.002;-1.592;2023-07-30T01:43:05;99363.46;;;16.70;50.38
59545;BME280;45368;55.002;-1.592;2023-07-30T01:45:33;99363.27;;;16.77;49.76
59545;BME280;45368;55.002;-1.592;2023-07-30T01:48:01;99370.35;;;16.35;49.99
59545;BME280;45368;55.002;-1.592;2023-07-30T01:50:29;99371.38;;;15.90;50.72
59545;BME280;45368;55.002;-1.592;2023-07-30T01:52:56;99376.81;;;16.36;50.71
59545;BME280;45368;55.002;-1.592;2023-07-30T01:55:23;99374.25;;;16.53;49.43
59545;BME280;45368;55.002;-1.592;2023-07-30T01:57:51;99374.27;;;17.34;48.34
59545;BME280;45368;55.002;-1.592;2023-07-30T02:00:18;99373.69;;;17.00;48.64
59545;BME280;45368;55.002;-1.592;2023-07-30T02:02:46;99369.25;;;16.20;50.08
59545;BME280;45368;55.002;-1.592;2023-07-30T02:05:13;99362.50;;;17.14;49.04
59545;BME280;45368;55.002;-1.592;2023-07-30T02:07:39;99370.90;;;16.07;50.35
59545;BME280;45368;55.002;-1.592;2023-07-30T02:10:07;99375.00;;;16.34;50.07
59545;BME280;45368;55.002;-1.592;2023-07-30T02:12:34;99375.92;;;16.24;49.99
59545;BME280;45368;55.002;-1.592;2023-07-30T02:15:01;99368.13;;;16.32;50.06
59545;BME280;45368;55.002;-1.592;2023-07-30T02:17:28;99362.13;;;16.17;50.63
59545;BME280;45368;55.002;-1.592;2023-07-30T02:19:56;99366.27;;;15.86;51.00
59545;BME280;45368;55.002;-1.592;2023-07-30T02:22:24;99364.02;;;16.61;49.51
59545;BME280;45368;55.002;-1.592;2023-07-30T02:24:51;99366.91;;;16.83;49.18
59545;BME280;45368;55.002;-1.592;2023-07-30T02:27:18;99375.40;;;15.21;52.35
59545;BME280;45368;55.002;-1.592;2023-07-30T02:29:46;99365.04;;;16.24;51.16
59545;BME280;45368;55.002;-1.592;2023-07-30T02:32:14;99364.32;;;17.21;48.63
59545;BME280;45368;55.002;-1.592;2023-07-30T02:34:42;99370.59;;;16.86;48.45
59545;BME280;45368;55.002;-1.592;2023-07-30T02:37:09;99372.07;;;16.80;48.62
59545;BME280;45368;55.002;-1.592;2023-07-30T02:39:37;99374.51;;;15.95;50.40
59545;BME280;45368;55.002;-1.592;2023-07-30T02:42:05;99364.20;;;15.70;51.07
59545;BME280;45368;55.002;-1.592;2023-07-30T02:44:32;99356.77;;;15.87;51.16
59545;BME280;45368;55.002;-1.592;2023-07-30T02:46:59;99357.00;;;15.38;52.18
59545;BME280;45368;55.002;-1.592;2023-07-30T02:49:26;99356.10;;;14.99;53.38
59545;BME280;45368;55.002;-1.592;2023-07-30T02:51:53;99354.21;;;14.58;54.46
59545;BME280;45368;55.002;-1.592;2023-07-30T02:54:21;99352.59;;;14.80;53.77
59545;BME280;45368;55.002;-1.592;2023-07-30T02:56:48;99353.28;;;14.40;54.68
59545;BME280;45368;55.002;-1.592;2023-07-30T02:59:16;99351.21;;;14.58;54.16
59545;BME280;45368;55.002;-1.592;2023-07-30T03:01:43;99343.35;;;14.87;53.80
59545;BME280;45368;55.002;-1.592;2023-07-30T03:04:13;99345.05;;;15.09;53.36
59545;BME280;45368;55.002;-1.592;2023-07-30T03:07:18;99350.34;;;15.34;52.73
59545;BME280;45368;55.002;-1.592;2023-07-30T03:09:45;99356.52;;;14.74;54.72
59545;BME280;45368;55.002;-1.592;2023-07-30T03:12:17;99358.17;;;14.68;57.13
59545;BME280;45368;55.002;-1.592;2023-07-30T03:14:45;99353.90;;;14.64;57.33
59545;BME280;45368;55.002;-1.592;2023-07-30T03:17:12;99357.06;;;15.00;56.84
59545;BME280;45368;55.002;-1.592;2023-07-30T03:19:40;99354.01;;;14.65;56.93
59545;BME280;45368;55.002;-1.592;2023-07-30T03:22:07;99355.30;;;14.11;58.19
59545;BME280;45368;55.002;-1.592;2023-07-30T03:24:34;99359.42;;;14.38;57.66
59545;BME280;45368;55.002;-1.592;2023-07-30T03:27:01;99371.17;;;14.57;58.19
59545;BME280;45368;55.002;-1.592;2023-07-30T03:29:29;99369.87;;;15.24;55.87
59545;BME280;45368;55.002;-1.592;2023-07-30T03:31:56;99365.36;;;14.92;56.34
59545;BME280;45368;55.002;-1.592;2023-07-30T03:34:24;99376.80;;;14.63;58.92
59545;BME280;45368;55.002;-1.592;2023-07-30T03:36:51;99371.84;;;14.48;59.40
59545;BME280;45368;55.002;-1.592;2023-07-30T03:39:17;99377.07;;;14.62;59.29
59545;BME280;45368;55.002;-1.592;2023-07-30T03:41:45;99372.02;;;14.53;58.79
59545;BME280;45368;55.002;-1.592;2023-07-30T03:44:12;99376.32;;;14.36;59.05
59545;BME280;45368;55.002;-1.592;2023-07-30T03:46:39;99375.12;;;13.85;59.84
59545;BME280;45368;55.002;-1.592;2023-07-30T03:49:06;99371.99;;;14.94;57.32
59545;BME280;45368;55.002;-1.592;2023-07-30T03:51:33;99370.99;;;14.43;58.04
59545;BME280;45368;55.002;-1.592;2023-07-30T03:54:00;99372.13;;;13.93;60.20
59545;BME280;45368;55.002;-1.592;2023-07-30T03:56:28;99367.87;;;14.55;58.17
59545;BME280;45368;55.002;-1.592;2023-07-30T03:58:55;99370.38;;;14.54;58.43
59545;BME280;45368;55.002;-1.592;2023-07-30T04:01:22;99379.14;;;14.16;59.24
59545;BME280;45368;55.002;-1.592;2023-07-30T04:03:50;99375.21;;;15.01;57.26
59545;BME280;45368;55.002;-1.592;2023-07-30T04:06:17;99375.17;;;15.27;56.25
59545;BME280;45368;55.002;-1.592;2023-07-30T04:08:44;99365.77;;;15.80;55.34
59545;BME280;45368;55.002;-1.592;2023-07-30T04:11:12;99361.95;;;15.82;55.19
59545;BME280;45368;55.002;-1.592;2023-07-30T04:13:39;99357.72;;;15.04;55.30
59545;BME280;45368;55.002;-1.592;2023-07-30T04:16:07;99359.54;;;15.66;54.37
59545;BME280;45368;55.002;-1.592;2023-07-30T04:18:35;99368.84;;;14.22;57.91
59545;BME280;45368;55.002;-1.592;2023-07-30T04:21:01;99369.15;;;14.50;57.61
59545;BME280;45368;55.002;-1.592;2023-07-30T04:23:29;99367.94;;;15.44;56.48
59545;BME280;45368;55.002;-1.592;2023-07-30T04:25:56;99372.05;;;14.83;57.16
59545;BME280;45368;55.002;-1.592;2023-07-30T04:28:23;99368.75;;;14.31;57.54
59545;BME280;45368;55.002;-1.592;2023-07-30T04:30:49;99368.47;;;14.85;56.82
59545;BME280;45368;55.002;-1.592;2023-07-30T04:33:16;99368.34;;;15.05;56.61
59545;BME280;45368;55.002;-1.592;2023-07-30T04:35:43;99363.25;;;15.45;56.09
59545;BME280;45368;55.002;-1.592;2023-07-30T04:38:32;99371.38;;;16.31;55.14
59545;BME280;45368;55.002;-1.592;2023-07-30T04:40:59;99367.53;;;15.66;55.33
59545;BME280;45368;55.002;-1.592;2023-07-30T04:43:27;99357.59;;;16.65;54.10
59545;BME280;45368;55.002;-1.592;2023-07-30T04:45:54;99360.67;;;15.99;55.14
59545;BME280;45368;55.002;-1.592;2023-07-30T04:48:25;99358.86;;;16.45;53.57
59545;BME280;45368;55.002;-1.592;2023-07-30T04:50:52;99355.94;;;15.99;53.95
59545;BME280;45368;55.002;-1.592;2023-07-30T04:53:19;99352.08;;;16.89;52.73
59545;BME280;45368;55.002;-1.592;2023-07-30T04:55:47;99351.29;;;16.55;52.04
59545;BME280;45368;55.002;-1.592;2023-07-30T04:58:15;99354.13;;;15.49;54.39
59545;BME280;45368;55.002;-1.592;2023-07-30T05:00:44;99347.78;;;15.62;54.34
59545;BME280;45368;55.002;-1.592;2023-07-30T05:03:10;99345.68;;;15.73;53.54
59545;BME280;45368;55.002;-1.592;2023-07-30T05:05:37;99354.06;;;14.73;56.56
59545;BME280;45368;55.002;-1.592;2023-07-30T05:08:04;99348.63;;;15.13;56.17
59545;BME280;45368;55.002;-1.592;2023-07-30T05:10:33;99346.53;;;14.59;56.92
59545;BME280;45368;55.002;-1.592;2023-07-30T05:13:00;99358.32;;;15.32;55.63
59545;BME280;45368;55.002;-1.592;2023-07-30T05:15:28;99358.02;;;14.63;56.56
59545;BME280;45368;55.002;-1.592;2023-07-30T05:17:55;99361.27;;;15.01;56.24
59545;BME280;45368;55.002;-1.592;2023-07-30T05:20:27;99357.30;;;14.56;56.86
59545;BME280;45368;55.002;-1.592;2023-07-30T05:22:54;99362.57;;;14.01;57.94
59545;BME280;45368;55.002;-1.592;2023-07-30T05:25:22;99361.27;;;15.15;55.82
59545;BME280;45368;55.002;-1.592;2023-07-30T05:27:50;99358.00;;;15.42;54.46
59545;BME280;45368;55.002;-1.592;2023-07-30T05:30:17;99366.00;;;15.21;55.06
59545;BME280;45368;55.002;-1.592;2023-07-30T05:32:44;99361.45;;;14.51;56.60
59545;BME280;45368;55.002;-1.592;2023-07-30T05:35:12;99361.42;;;14.86;56.53
59545;BME280;45368;55.002;-1.592;2023-07-30T05:37:39;99360.24;;;14.68;57.03
59545;BME280;45368;55.002;-1.592;2023-07-30T05:40:07;99356.33;;;14.40;56.42
59545;BME280;45368;55.002;-1.592;2023-07-30T05:42:34;99357.92;;;15.17;56.04
59545;BME280;45368;55.002;-1.592;2023-07-30T05:45:01;99357.51;;;14.59;57.18
59545;BME280;45368;55.002;-1.592;2023-07-30T05:47:28;99356.34;;;14.46;56.92
59545;BME280;45368;55.002;-1.592;2023-07-30T05:49:56;99352.78;;;14.48;56.22
59545;BME280;45368;55.002;-1.592;2023-07-30T05:52:23;99357.66;;;15.22;54.84
59545;BME280;45368;55.002;-1.592;2023-07-30T05:54:51;99354.04;;;16.29;52.78
59545;BME280;45368;55.002;-1.592;2023-07-30T05:57:19;99351.86;;;16.06;53.11
59545;BME280;45368;55.002;-1.592;2023-07-30T05:59:45;99353.73;;;16.08;53.30
59545;BME280;45368;55.002;-1.592;2023-07-30T06:02:12;99360.59;;;15.86;53.53
59545;BME280;45368;55.002;-1.592;2023-07-30T06:04:39;99359.78;;;15.86;54.30
59545;BME280;45368;55.002;-1.592;2023-07-30T06:07:06;99359.52;;;15.22;54.80
59545;BME280;45368;55.002;-1.592;2023-07-30T06:09:34;99357.94;;;15.48;54.22
59545;BME280;45368;55.002;-1.592;2023-07-30T06:12:02;99367.22;;;15.57;53.81
59545;BME280;45368;55.002;-1.592;2023-07-30T06:14:29;99371.01;;;15.05;54.50
59545;BME280;45368;55.002;-1.592;2023-07-30T06:16:56;99375.21;;;14.74;55.86
59545;BME280;45368;55.002;-1.592;2023-07-30T06:19:23;99377.16;;;14.65;55.70
59545;BME280;45368;55.002;-1.592;2023-07-30T06:21:50;99374.44;;;14.62;56.27
59545;BME280;45368;55.002;-1.592;2023-07-30T06:24:18;99370.99;;;14.81;56.90
59545;BME280;45368;55.002;-1.592;2023-07-30T06:26:45;99369.92;;;14.91;57.01
59545;BME280;45368;55.002;-1.592;2023-07-30T06:29:12;99380.70;;;14.71;58.04
59545;BME280;45368;55.002;-1.592;2023-07-30T06:31:38;99382.05;;;14.79;57.29
59545;BME280;45368;55.002;-1.592;2023-07-30T06:34:06;99388.31;;;15.00;57.42
59545;BME280;45368;55.002;-1.592;2023-07-30T06:36:33;99398.66;;;14.58;57.93
59545;BME280;45368;55.002;-1.592;2023-07-30T06:39:01;99396.46;;;14.38;58.74
59545;BME280;45368;55.002;-1.592;2023-07-30T06:41:28;99391.35;;;14.58;58.62
59545;BME280;45368;55.002;-1.592;2023-07-30T06:43:56;99390.91;;;14.89;58.29
59545;BME280;45368;55.002;-1.592;2023-07-30T06:46:23;99390.02;;;14.71;58.76
59545;BME280;45368;55.002;-1.592;2023-07-30T06:48:50;99390.94;;;14.24;59.86
59545;BME280;45368;55.002;-1.592;2023-07-30T06:51:19;99383.21;;;14.61;58.28
59545;BME280;45368;55.002;-1.592;2023-07-30T06:53:47;99380.05;;;14.98;58.34
59545;BME280;45368;55.002;-1.592;2023-07-30T06:56:14;99384.96;;;14.41;58.12
59545;BME280;45368;55.002;-1.592;2023-07-30T06:58:41;99392.35;;;14.20;60.01
59545;BME280;45368;55.002;-1.592;2023-07-30T07:01:09;99397.71;;;14.10;60.33
59545;BME280;45368;55.002;-1.592;2023-07-30T07:03:35;99391.11;;;14.68;58.91
59545;BME280;45368;55.002;-1.592;2023-07-30T07:06:03;99395.83;;;15.26;57.25
59545;BME280;45368;55.002;-1.592;2023-07-30T07:08:30;99394.61;;;15.07;57.45
59545;BME280;45368;55.002;-1.592;2023-07-30T07:10:57;99401.44;;;15.68;57.22
59545;BME280;45368;55.002;-1.592;2023-07-30T07:13:24;99404.29;;;14.92;57.95
59545;BME280;45368;55.002;-1.592;2023-07-30T07:15:55;99405.85;;;14.67;58.47
59545;BME280;45368;55.002;-1.592;2023-07-30T07:18:24;99405.39;;;13.87;60.68
59545;BME280;45368;55.002;-1.592;2023-07-30T07:21:00;99410.76;;;14.85;58.67
59545;BME280;45368;55.002;-1.592;2023-07-30T07:23:27;99408.45;;;14.96;57.01
59545;BME280;45368;55.002;-1.592;2023-07-30T07:25:56;99406.44;;;15.25;56.73
59545;BME280;45368;55.002;-1.592;2023-07-30T07:28:23;99415.69;;;14.95;57.41
59545;BME280;45368;55.002;-1.592;2023-07-30T07:30:50;99426.91;;;15.40;55.94
59545;BME280;45368;55.002;-1.592;2023-07-30T07:33:18;99435.01;;;15.16;56.43
59545;BME280;45368;55.002;-1.592;2023-07-30T07:35:45;99435.44;;;14.02;59.45
59545;BME280;45368;55.002;-1.592;2023-07-30T07:38:12;99428.90;;;14.36;59.01
59545;BME280;45368;55.002;-1.592;2023-07-30T07:40:39;99420.33;;;14.83;58.47
59545;BME280;45368;55.002;-1.592;2023-07-30T07:43:07;99419.70;;;15.32;55.81
59545;BME280;45368;55.002;-1.592;2023-07-30T07:45:35;99427.69;;;15.31;56.08
59545;BME280;45368;55.002;-1.592;2023-07-30T07:48:02;99424.45;;;15.99;54.97
59545;BME280;45368;55.002;-1.592;2023-07-30T07:50:30;99418.38;;;16.05;54.38
59545;BME280;45368;55.002;-1.592;2023-07-30T07:52:57;99411.59;;;16.33;53.50
59545;BME280;45368;55.002;-1.592;2023-07-30T07:55:24;99402.77;;;16.74;51.18
59545;BME280;45368;55.002;-1.592;2023-07-30T07:57:51;99410.55;;;16.19;52.77
59545;BME280;45368;55.002;-1.592;2023-07-30T08:00:19;99412.58;;;16.15;52.64
59545;BME280;45368;55.002;-1.592;2023-07-30T08:02:46;99411.93;;;17.00;50.72
59545;BME280;45368;55.002;-1.592;2023-07-30T08:05:14;99417.15;;;17.21;49.99
59545;BME280;45368;55.002;-1.592;2023-07-30T08:07:43;99409.39;;;17.65;48.60
59545;BME280;45368;55.002;-1.592;2023-07-30T08:10:11;99412.45;;;15.51;52.31
59545;BME280;45368;55.002;-1.592;2023-07-30T08:12:39;99411.66;;;15.80;52.47
59545;BME280;45368;55.002;-1.592;2023-07-30T08:15:07;99411.14;;;14.88;53.91
59545;BME280;45368;55.002;-1.592;2023-07-30T08:17:34;99405.27;;;15.66;52.52
59545;BME280;45368;55.002;-1.592;2023-07-30T08:20:02;99399.21;;;15.32;53.68
59545;BME280;45368;55.002;-1.592;2023-07-30T08:22:29;99413.06;;;15.29;53.92
59545;BME280;45368;55.002;-1.592;2023-07-30T08:24:57;99408.53;;;15.42;51.79
59545;BME280;45368;55.002;-1.592;2023-07-30T08:27:24;99420.85;;;15.23;53.27
59545;BME280;45368;55.002;-1.592;2023-07-30T08:29:51;99410.55;;;15.38;52.27
59545;BME280;45368;55.002;-1.592;2023-07-30T08:32:18;99411.18;;;15.16;53.24
59545;BME280;45368;55.002;-1.592;2023-07-30T08:34:45;99411.12;;;15.09;53.64
59545;BME280;45368;55.002;-1.592;2023-07-30T08:37:12;99403.88;;;16.50;50.49
59545;BME280;45368;55.002;-1.592;2023-07-30T08:39:39;99411.67;;;15.28;53.54
59545;BME280;45368;55.002;-1.592;2023-07-30T08:42:06;99415.12;;;15.91;52.18
59545;BME280;45368;55.002;-1.592;2023-07-30T08:44:35;99405.50;;;15.75;52.15
59545;BME280;45368;55.002;-1.592;2023-07-30T08:47:02;99412.12;;;16.00;52.25
59545;BME280;45368;55.002;-1.592;2023-07-30T08:49:30;99409.25;;;15.89;52.97
59545;BME280;45368;55.002;-1.592;2023-07-30T08:51:58;99411.71;;;15.73;52.22
59545;BME280;45368;55.002;-1.592;2023-07-30T08:54:27;99410.56;;;15.90;51.66
59545;BME280;45368;55.002;-1.592;2023-07-30T08:56:57;99414.54;;;15.98;51.54
59545;BME280;45368;55.002;-1.592;2023-07-30T08:59:24;99415.68;;;16.12;51.17
59545;BME280;45368;55.002;-1.592;2023-07-30T09:01:54;99415.91;;;16.53;50.61
59545;BME280;45368;55.002;-1.592;2023-07-30T09:04:29;99410.24;;;15.22;53.69
59545;BME280;45368;55.002;-1.592;2023-07-30T09:06:56;99417.52;;;15.19;53.46
59545;BME280;45368;55.002;-1.592;2023-07-30T09:09:23;99421.61;;;14.83;54.24
59545;BME280;45368;55.002;-1.592;2023-07-30T09:11:51;99424.53;;;14.93;54.84
59545;BME280;45368;55.002;-1.592;2023-07-30T09:14:20;99417.28;;;15.64;53.49
59545;BME280;45368;55.002;-1.592;2023-07-30T09:16:47;99419.62;;;15.48;52.55
59545;BME280;45368;55.002;-1.592;2023-07-30T09:19:16;99427.87;;;15.42;52.92
59545;BME280;45368;55.002;-1.592;2023-07-30T09:21:43;99428.66;;;14.87;53.30
59545;BME280;45368;55.002;-1.592;2023-07-30T09:24:11;99430.33;;;14.80;54.12
59545;BME280;45368;55.002;-1.592;2023-07-30T09:26:42;99440.26;;;14.29;56.20
59545;BME280;45368;55.002;-1.592;2023-07-30T09:29:10;99429.95;;;14.88;54.44
59545;BME280;45368;55.002;-1.592;2023-07-30T09:31:54;99437.01;;;15.37;53.59
59545;BME280;45368;55.002;-1.592;2023-07-30T09:34:26;99446.73;;;15.01;53.85
59545;BME280;45368;55.002;-1.592;2023-07-30T09:36:54;99438.45;;;15.30;52.94
59545;BME280;45368;55.002;-1.592;2023-07-30T09:39:23;99443.19;;;15.63;52.57
59545;BME280;45368;55.002;-1.592;2023-07-30T09:41:52;99462.49;;;14.78;54.27
59545;BME280;45368;55.002;-1.592;2023-07-30T09:44:25;99451.08;;;15.00;55.22
59545;BME280;45368;55.002;-1.592;2023-07-30T09:46:53;99462.25;;;15.64;53.43
59545;BME280;45368;55.002;-1.592;2023-07-30T09:49:22;99454.46;;;15.30;52.90
59545;BME280;45368;55.002;-1.592;2023-07-30T09:51:51;99444.71;;;15.60;52.43
59545;BME280;45368;55.002;-1.592;2023-07-30T09:54:18;99444.08;;;15.99;51.73
59545;BME280;45368;55.002;-1.592;2023-07-30T09:56:46;99457.76;;;15.97;51.22
59545;BME280;45368;55.002;-1.592;2023-07-30T09:59:13;99449.07;;;15.87;52.12
59545;BME280;45368;55.002;-1.592;2023-07-30T10:01:43;99458.90;;;15.61;52.69
59545;BME280;45368;55.002;-1.592;2023-07-30T10:04:11;99452.51;;;15.66;52.34
59545;BME280;45368;55.002;-1.592;2023-07-30T10:06:51;99453.23;;;15.84;52.29
59545;BME280;45368;55.002;-1.592;2023-07-30T10:09:27;99451.28;;;16.09;52.19
59545;BME280;45368;55.002;-1.592;2023-07-30T10:11:55;99454.79;;;15.96;51.16
59545;BME280;45368;55.002;-1.592;2023-07-30T10:14:24;99450.84;;;16.31;51.90
59545;BME280;45368;55.002;-1.592;2023-07-30T10:16:54;99462.72;;;15.46;52.77
59545;BME280;45368;55.002;-1.592;2023-07-30T10:19:25;99460.06;;;14.57;55.41
59545;BME280;45368;55.002;-1.592;2023-07-30T10:21:54;99457.59;;;15.53;52.90
59545;BME280;45368;55.002;-1.592;2023-07-30T10:24:25;99456.99;;;15.91;53.00
59545;BME280;45368;55.002;-1.592;2023-07-30T10:26:53;99465.70;;;15.31;52.62
59545;BME280;45368;55.002;-1.592;2023-07-30T10:29:20;99465.79;;;16.24;51.07
59545;BME280;45368;55.002;-1.592;2023-07-30T10:31:51;99459.51;;;15.65;52.56
59545;BME280;45368;55.002;-1.592;2023-07-30T10:34:19;99471.17;;;14.61;53.87
59545;BME280;45368;55.002;-1.592;2023-07-30T10:36:48;99464.51;;;15.66;52.31
59545;BME280;45368;55.002;-1.592;2023-07-30T10:39:17;99467.57;;;16.17;51.84
59545;BME280;45368;55.002;-1.592;2023-07-30T10:41:46;99467.23;;;16.21;51.00
59545;BME280;45368;55.002;-1.592;2023-07-30T10:44:26;99459.83;;;16.32;51.64
59545;BME280;45368;55.002;-1.592;2023-07-30T10:46:55;99478.10;;;15.62;52.06
59545;BME280;45368;55.002;-1.592;2023-07-30T10:49:23;99474.50;;;16.19;51.03
59545;BME280;45368;55.002;-1.592;2023-07-30T10:51:52;99479.87;;;15.76;51.53
59545;BME280;45368;55.002;-1.592;2023-07-30T10:54:25;99488.98;;;15.66;52.51
59545;BME280;45368;55.002;-1.592;2023-07-30T10:56:54;99480.75;;;15.36;51.88
59545;BME280;45368;55.002;-1.592;2023-07-30T10:59:26;99491.04;;;15.32;52.91
59545;BME280;45368;55.002;-1.592;2023-07-30T11:01:59;99479.30;;;15.15;52.52
59545;BME280;45368;55.002;-1.592;2023-07-30T11:04:27;99487.65;;;16.13;50.69
59545;BME280;45368;55.002;-1.592;2023-07-30T11:06:54;99479.94;;;16.68;50.15
59545;BME280;45368;55.002;-1.592;2023-07-30T11:09:27;99472.47;;;17.90;46.38
59545;BME280;45368;55.002;-1.592;2023-07-30T11:11:56;99479.25;;;17.97;46.22
59545;BME280;45368;55.002;-1.592;2023-07-30T11:14:25;99484.44;;;16.74;47.84
59545;BME280;45368;55.002;-1.592;2023-07-30T11:17:58;99486.12;;;16.87;48.34
59545;BME280;45368;55.002;-1.592;2023-07-30T11:21:30;99500.10;;;16.31;49.75
59545;BME280;45368;55.002;-1.592;2023-07-30T11:23:57;99522.08;;;16.05;51.07
59545;BME280;45368;55.002;-1.592;2023-07-30T11:26:25;99518.77;;;15.35;53.44
59545;BME280;45368;55.002;-1.592;2023-07-30T11:29:34;99505.17;;;16.97;50.51
59545;BME280;45368;55.002;-1.592;2023-07-30T11:32:04;99502.16;;;17.64;48.25
59545;BME280;45368;55.002;-1.592;2023-07-30T11:34:32;99494.58;;;18.07;48.40
59545;BME280;45368;55.002;-1.592;2023-07-30T11:37:00;99493.01;;;18.81;46.91
59545;BME280;45368;55.002;-1.592;2023-07-30T11:39:30;99490.97;;;19.65;44.33
59545;BME280;45368;55.002;-1.592;2023-07-30T11:41:57;99501.11;;;21.14;42.93
59545;BME280;45368;55.002;-1.592;2023-07-30T11:44:34;99486.24;;;21.92;41.74
59545;BME280;45368;55.002;-1.592;2023-07-30T11:47:02;99492.73;;;21.59;41.33
59545;BME280;45368;55.002;-1.592;2023-07-30T11:49:29;99497.05;;;21.81;41.26
59545;BME280;45368;55.002;-1.592;2023-07-30T11:52:05;99494.61;;;20.84;41.96
59545;BME280;45368;55.002;-1.592;2023-07-30T11:54:32;99498.61;;;20.35;42.94
59545;BME280;45368;55.002;-1.592;2023-07-30T11:56:59;99507.72;;;19.80;43.75
59545;BME280;45368;55.002;-1.592;2023-07-30T11:59:28;99500.44;;;19.07;45.69
59545;BME280;45368;55.002;-1.592;2023-07-30T12:01:57;99515.87;;;18.14;47.42
59545;BME280;45368;55.002;-1.592;2023-07-30T12:04:25;99514.28;;;17.66;47.52
59545;BME280;45368;55.002;-1.592;2023-07-30T12:06:53;99519.61;;;17.31;49.24
59545;BME280;45368;55.002;-1.592;2023-07-30T12:09:22;99525.88;;;17.38;50.01
59545;BME280;45368;55.002;-1.592;2023-07-30T12:11:51;99523.94;;;17.30;49.79
59545;BME280;45368;55.002;-1.592;2023-07-30T12:14:19;99519.90;;;16.20;50.86
59545;BME280;45368;55.002;-1.592;2023-07-30T12:16:48;99521.20;;;16.51;51.06
59545;BME280;45368;55.002;-1.592;2023-07-30T12:19:15;99521.53;;;17.59;49.18
59545;BME280;45368;55.002;-1.592;2023-07-30T12:21:43;99522.63;;;17.75;48.34
59545;BME280;45368;55.002;-1.592;2023-07-30T12:24:10;99529.39;;;17.41;49.34
59545;BME280;45368;55.002;-1.592;2023-07-30T12:26:37;99519.13;;;17.46;48.79
59545;BME280;45368;55.002;-1.592;2023-07-30T12:29:05;99525.26;;;17.71;48.20
59545;BME280;45368;55.002;-1.592;2023-07-30T12:31:32;99524.35;;;17.59;49.44
59545;BME280;45368;55.002;-1.592;2023-07-30T12:34:00;99529.80;;;18.24;47.33
59545;BME280;45368;55.002;-1.592;2023-07-30T12:36:26;99525.94;;;17.42;49.21
59545;BME280;45368;55.002;-1.592;2023-07-30T12:38:54;99529.22;;;17.60;48.31
59545;BME280;45368;55.002;-1.592;2023-07-30T12:41:22;99527.34;;;18.11;48.25
59545;BME280;45368;55.002;-1.592;2023-07-30T12:43:49;99536.63;;;18.68;46.69
59545;BME280;45368;55.002;-1.592;2023-07-30T12:46:17;99538.42;;;18.11;47.45
59545;BME280;45368;55.002;-1.592;2023-07-30T12:48:45;99546.23;;;18.13;46.53
59545;BME280;45368;55.002;-1.592;2023-07-30T12:51:12;99553.75;;;17.39;47.37
59545;BME280;45368;55.002;-1.592;2023-07-30T12:53:40;99537.25;;;17.80;47.13
59545;BME280;45368;55.002;-1.592;2023-07-30T12:56:08;99543.30;;;17.22;47.35
59545;BME280;45368;55.002;-1.592;2023-07-30T12:58:35;99544.51;;;17.80;47.40